createdAt,value
2018-09-05T00:00:45.830Z,15.50
2018-09-05T00:03:14.399Z,15.60
2018-09-05T00:05:42.970Z,15.70
2018-09-05T00:08:11.515Z,15.60
2018-09-05T00:10:40.162Z,15.50
2018-09-05T00:13:08.778Z,15.50
2018-09-05T00:15:37.467Z,15.50
2018-09-05T00:18:06.168Z,15.30
2018-09-05T00:20:34.742Z,15.40
2018-09-05T00:23:03.307Z,15.20
2018-09-05T00:25:31.905Z,15.10
2018-09-05T00:28:00.447Z,15.00
2018-09-05T00:30:29.068Z,14.80
2018-09-05T00:32:57.667Z,15.00
2018-09-05T00:35:26.247Z,15.00
2018-09-05T00:37:54.791Z,14.90
2018-09-05T00:40:23.377Z,14.90
2018-09-05T00:42:51.974Z,14.80
2018-09-05T00:45:20.618Z,15.00
2018-09-05T00:47:49.186Z,14.80
2018-09-05T00:50:17.796Z,14.60
2018-09-05T00:52:46.404Z,14.40
2018-09-05T00:55:14.974Z,14.40
2018-09-05T00:57:43.687Z,14.60
2018-09-05T01:00:12.330Z,14.60
2018-09-05T01:02:40.907Z,14.50
2018-09-05T01:05:09.482Z,14.30
2018-09-05T01:07:38.112Z,14.20
2018-09-05T01:10:06.790Z,14.20
2018-09-05T01:12:35.440Z,14.10
2018-09-05T01:15:04.076Z,14.30
2018-09-05T01:17:32.662Z,14.20
2018-09-05T01:20:01.214Z,14.40
2018-09-05T01:22:29.916Z,14.50
2018-09-05T01:24:58.476Z,14.40
2018-09-05T01:27:27.102Z,14.20
2018-09-05T01:29:55.682Z,14.20
2018-09-05T01:32:24.309Z,14.10
2018-09-05T01:34:52.888Z,13.90
2018-09-05T01:37:21.476Z,13.90
2018-09-05T01:39:50.046Z,13.90
2018-09-05T01:42:18.659Z,14.10
2018-09-05T01:44:47.244Z,14.10
2018-09-05T01:47:15.851Z,14.00
2018-09-05T01:49:44.427Z,13.70
2018-09-05T01:52:13.028Z,13.60
2018-09-05T01:54:41.581Z,13.50
2018-09-05T01:57:10.236Z,13.40
2018-09-05T01:59:40.033Z,13.60
2018-09-05T02:02:08.655Z,13.70
2018-09-05T02:04:37.266Z,13.80
2018-09-05T02:07:05.881Z,13.80
2018-09-05T02:09:34.565Z,13.70
2018-09-05T02:12:03.174Z,13.70
2018-09-05T02:14:31.782Z,13.70
2018-09-05T02:17:00.611Z,13.60
2018-09-05T02:19:29.243Z,13.70
2018-09-05T02:21:57.828Z,13.60
2018-09-05T02:24:26.433Z,13.20
2018-09-05T02:26:55.085Z,13.10
2018-09-05T02:29:23.808Z,13.00
2018-09-05T02:31:52.360Z,13.00
2018-09-05T02:34:20.922Z,13.00
2018-09-05T02:36:49.491Z,13.10
2018-09-05T02:39:18.079Z,13.20
2018-09-05T02:41:46.705Z,13.20
2018-09-05T02:44:19.556Z,13.40
2018-09-05T02:46:50.425Z,13.50
2018-09-05T02:49:19.128Z,13.40
2018-09-05T02:51:48.055Z,13.20
2018-09-05T02:54:16.670Z,13.10
2018-09-05T02:56:45.268Z,13.10
2018-09-05T02:59:13.899Z,12.90
2018-09-05T03:01:42.503Z,12.80
2018-09-05T03:04:11.082Z,12.80
2018-09-05T03:06:39.703Z,12.90
2018-09-05T03:09:08.946Z,13.00
2018-09-05T03:11:37.594Z,12.90
2018-09-05T03:14:06.279Z,13.00
2018-09-05T03:16:34.942Z,13.00
2018-09-05T03:19:04.110Z,12.90
2018-09-05T03:21:32.202Z,12.90
2018-09-05T03:24:00.800Z,12.90
2018-09-05T03:26:29.401Z,13.00
2018-09-05T03:28:58.001Z,13.10
2018-09-05T03:31:26.627Z,12.90
2018-09-05T03:33:55.203Z,12.60
2018-09-05T03:36:23.794Z,12.50
2018-09-05T03:38:52.543Z,12.40
2018-09-05T03:41:21.166Z,12.50
2018-09-05T03:43:49.749Z,12.70
2018-09-05T03:46:18.413Z,12.50
2018-09-05T03:48:47.015Z,12.50
2018-09-05T03:51:15.631Z,12.40
2018-09-05T03:53:44.194Z,12.50
2018-09-05T03:56:12.844Z,12.50
2018-09-05T03:58:41.402Z,12.40
2018-09-05T04:01:09.976Z,12.50
2018-09-05T04:03:38.538Z,12.40
2018-09-05T04:06:07.122Z,12.40
2018-09-05T04:08:35.671Z,12.40
2018-09-05T04:11:04.280Z,12.40
2018-09-05T04:13:32.956Z,12.20
2018-09-05T04:16:01.498Z,12.30
2018-09-05T04:18:30.111Z,12.50
2018-09-05T04:20:58.678Z,12.70
2018-09-05T04:23:31.453Z,12.60
2018-09-05T04:26:00.054Z,12.60
2018-09-05T04:28:28.660Z,12.70
2018-09-05T04:30:57.252Z,12.70
2018-09-05T04:33:25.812Z,12.80
2018-09-05T04:36:34.681Z,12.90
2018-09-05T04:39:04.796Z,13.00
2018-09-05T04:41:33.395Z,12.90
2018-09-05T04:44:01.983Z,12.90
2018-09-05T04:46:30.651Z,13.00
2018-09-05T04:48:59.254Z,13.00
2018-09-05T04:51:27.843Z,12.90
2018-09-05T04:53:56.451Z,13.00
2018-09-05T04:56:25.122Z,13.10
2018-09-05T04:58:54.289Z,13.00
2018-09-05T05:01:22.855Z,13.10
2018-09-05T05:03:51.554Z,13.10
2018-09-05T05:06:20.147Z,13.10
2018-09-05T05:08:48.823Z,13.20
2018-09-05T05:11:17.390Z,13.00
2018-09-05T05:13:46.093Z,13.20
2018-09-05T05:16:14.709Z,13.20
2018-09-05T05:18:43.286Z,13.20
2018-09-05T05:21:11.875Z,13.30
2018-09-05T05:23:40.621Z,13.20
2018-09-05T05:26:09.144Z,13.30
2018-09-05T05:28:37.733Z,13.40
2018-09-05T05:31:06.337Z,13.40
2018-09-05T05:33:34.905Z,13.40
2018-09-05T05:36:03.883Z,13.40
2018-09-05T05:38:32.486Z,13.40
2018-09-05T05:41:01.067Z,13.40
2018-09-05T05:43:29.676Z,13.20
2018-09-05T05:45:58.249Z,13.50
2018-09-05T05:48:26.832Z,13.50
2018-09-05T05:50:55.421Z,13.60
2018-09-05T05:53:23.988Z,13.60
2018-09-05T05:55:52.590Z,13.70
2018-09-05T05:58:21.165Z,13.70
2018-09-05T06:00:49.760Z,13.70
2018-09-05T06:03:18.402Z,13.60
2018-09-05T06:05:46.965Z,13.80
2018-09-05T06:08:15.651Z,13.70
2018-09-05T06:10:44.242Z,13.40
2018-09-05T06:13:12.800Z,13.50
2018-09-05T06:15:41.463Z,13.40
2018-09-05T06:18:10.030Z,13.70
2018-09-05T06:20:38.730Z,14.00
2018-09-05T06:23:07.290Z,14.10
2018-09-05T06:25:35.957Z,13.90
2018-09-05T06:28:04.551Z,13.90
2018-09-05T06:30:33.297Z,14.20
2018-09-05T06:33:01.963Z,14.20
2018-09-05T06:35:30.596Z,14.30
2018-09-05T06:37:59.175Z,14.30
2018-09-05T06:40:27.776Z,14.30
2018-09-05T06:42:56.326Z,14.60
2018-09-05T06:45:24.945Z,14.80
2018-09-05T06:47:53.567Z,15.00
2018-09-05T06:50:22.219Z,15.30
2018-09-05T06:52:50.891Z,15.40
2018-09-05T06:55:19.601Z,15.40
2018-09-05T06:57:48.310Z,15.60
2018-09-05T07:00:18.199Z,16.00
2018-09-05T07:02:46.923Z,16.40
2018-09-05T07:05:15.741Z,16.80
2018-09-05T07:07:44.480Z,16.80
2018-09-05T07:10:13.260Z,17.30
2018-09-05T07:12:41.849Z,17.30
2018-09-05T07:15:10.493Z,17.60
2018-09-05T07:17:39.124Z,17.60
2018-09-05T07:20:08.800Z,17.90
2018-09-05T07:22:37.508Z,18.20
2018-09-05T07:25:07.065Z,18.50
2018-09-05T07:27:35.841Z,18.80
2018-09-05T07:30:04.494Z,19.00
2018-09-05T07:32:33.087Z,19.00
2018-09-05T07:35:01.710Z,19.20
2018-09-05T07:37:30.318Z,19.70
2018-09-05T07:39:59.543Z,19.80
2018-09-05T07:42:28.154Z,20.00
2018-09-05T07:44:56.782Z,20.30
2018-09-05T07:47:25.598Z,20.50
2018-09-05T07:49:54.167Z,20.80
2018-09-05T07:52:22.776Z,20.90
2018-09-05T07:54:51.467Z,21.00
2018-09-05T07:57:20.192Z,21.00
2018-09-05T07:59:48.742Z,21.40
2018-09-05T08:02:17.417Z,21.50
2018-09-05T08:04:46.076Z,21.60
2018-09-05T08:07:14.720Z,22.10
2018-09-05T08:09:43.382Z,22.40
2018-09-05T08:12:12.047Z,22.40
2018-09-05T08:14:40.663Z,22.70
2018-09-05T08:17:09.284Z,22.60
2018-09-05T08:19:37.922Z,22.30
2018-09-05T08:22:06.524Z,22.90
2018-09-05T08:24:35.285Z,22.60
2018-09-05T08:27:03.843Z,21.50
2018-09-05T08:29:32.475Z,22.30
2018-09-05T08:32:01.092Z,22.60
2018-09-05T08:34:29.732Z,23.20
2018-09-05T08:36:58.610Z,23.80
2018-09-05T08:39:27.098Z,24.10
2018-09-05T08:41:55.848Z,22.30
2018-09-05T08:44:24.645Z,23.00
2018-09-05T08:46:53.184Z,23.00
2018-09-05T08:49:21.808Z,23.30
2018-09-05T08:51:50.499Z,23.90
2018-09-05T08:54:19.158Z,23.40
2018-09-05T08:56:48.875Z,23.90
2018-09-05T08:59:17.487Z,24.60
2018-09-05T09:01:46.154Z,24.90
2018-09-05T09:04:14.914Z,24.00
2018-09-05T09:06:43.520Z,24.70
2018-09-05T09:09:12.812Z,24.80
2018-09-05T09:11:41.443Z,25.20
2018-09-05T09:14:10.879Z,25.00
2018-09-05T09:16:39.635Z,24.50
2018-09-05T09:19:08.328Z,24.50
2018-09-05T09:21:37.026Z,25.20
2018-09-05T09:24:05.968Z,25.80
2018-09-05T09:26:34.599Z,24.70
2018-09-05T09:29:03.206Z,25.00
2018-09-05T09:31:31.930Z,25.40
2018-09-05T09:34:00.544Z,25.90
2018-09-05T09:36:29.142Z,25.60
2018-09-05T09:38:57.731Z,25.80
2018-09-05T09:41:26.391Z,24.70
2018-09-05T09:43:54.997Z,25.30
2018-09-05T09:46:23.659Z,25.20
2018-09-05T09:48:52.251Z,25.70
2018-09-05T09:51:22.812Z,26.40
2018-09-05T09:53:52.286Z,25.30
2018-09-05T09:56:21.267Z,26.10
2018-09-05T09:58:49.955Z,25.50
2018-09-05T10:01:23.918Z,26.10
2018-09-05T10:03:57.771Z,26.70
2018-09-05T10:06:31.697Z,26.40
2018-09-05T10:09:05.527Z,27.00
2018-09-05T10:11:39.565Z,27.30
2018-09-05T10:15:13.469Z,27.10
2018-09-05T10:17:42.127Z,26.70
2018-09-05T10:20:10.780Z,27.30
2018-09-05T10:22:39.506Z,26.50
2018-09-05T10:25:08.114Z,26.90
2018-09-05T10:27:36.768Z,26.50
2018-09-05T10:30:05.411Z,26.50
2018-09-05T10:32:34.037Z,27.00
2018-09-05T10:35:02.681Z,27.60
2018-09-05T10:37:31.365Z,27.70
2018-09-05T10:39:59.988Z,27.30
2018-09-05T10:42:28.685Z,27.50
2018-09-05T10:44:57.358Z,28.10
2018-09-05T10:47:26.071Z,27.40
2018-09-05T10:49:54.734Z,28.20
2018-09-05T10:52:23.405Z,28.00
2018-09-05T10:54:52.075Z,27.60
2018-09-05T10:57:20.750Z,27.60
2018-09-05T10:59:49.363Z,28.10
2018-09-05T11:02:19.053Z,26.90
2018-09-05T11:04:47.677Z,26.30
2018-09-05T11:07:16.302Z,27.10
2018-09-05T11:09:44.885Z,27.20
2018-09-05T11:12:13.507Z,27.30
2018-09-05T11:14:42.122Z,27.00
2018-09-05T11:17:10.775Z,26.20
2018-09-05T11:19:39.424Z,26.40
2018-09-05T11:22:08.076Z,26.80
2018-09-05T11:24:36.791Z,26.90
2018-09-05T11:27:05.424Z,27.10
2018-09-05T11:29:34.044Z,26.70
2018-09-05T11:32:02.663Z,27.20
2018-09-05T11:34:31.276Z,27.70
2018-09-05T11:36:59.940Z,27.40
2018-09-05T11:39:28.650Z,27.40
2018-09-05T11:41:57.271Z,27.70
2018-09-05T11:44:25.927Z,28.00
2018-09-05T11:46:54.545Z,27.70
2018-09-05T11:49:23.175Z,27.70
2018-09-05T11:51:51.835Z,27.40
2018-09-05T11:54:20.517Z,28.00
2018-09-05T11:56:49.151Z,27.90
2018-09-05T11:59:17.768Z,28.40
2018-09-05T12:01:46.461Z,29.10
2018-09-05T12:04:15.090Z,28.70
2018-09-05T12:06:43.826Z,28.30
2018-09-05T12:09:13.070Z,28.80
2018-09-05T12:11:41.798Z,28.40
2018-09-05T12:14:10.923Z,28.00
2018-09-05T12:16:39.669Z,28.20
2018-09-05T12:19:08.384Z,27.50
2018-09-05T12:21:37.002Z,28.00
2018-09-05T12:24:05.693Z,28.00
2018-09-05T12:26:34.646Z,28.10
2018-09-05T12:29:05.945Z,28.00
2018-09-05T12:31:34.554Z,28.20
2018-09-05T12:34:03.215Z,28.30
2018-09-05T12:36:31.857Z,28.50
2018-09-05T12:39:00.495Z,28.40
2018-09-05T12:41:29.084Z,28.80
2018-09-05T12:43:57.722Z,28.00
2018-09-05T12:46:26.318Z,28.00
2018-09-05T12:48:54.971Z,28.40
2018-09-05T12:51:23.632Z,28.40
2018-09-05T12:53:52.234Z,28.30
2018-09-05T12:56:20.887Z,28.40
2018-09-05T12:58:49.516Z,29.10
2018-09-05T13:01:18.214Z,28.60
2018-09-05T13:03:46.887Z,28.70
2018-09-05T13:06:15.568Z,28.60
2018-09-05T13:08:44.181Z,28.60
2018-09-05T13:11:12.897Z,27.90
2018-09-05T13:13:41.616Z,27.70
2018-09-05T13:16:10.331Z,27.90
2018-09-05T13:18:39.033Z,28.70
2018-09-05T13:21:07.746Z,28.80
2018-09-05T13:23:36.460Z,28.80
2018-09-05T13:26:05.129Z,28.20
2018-09-05T13:28:33.854Z,28.00
2018-09-05T13:31:02.602Z,28.50
2018-09-05T13:33:31.298Z,27.70
2018-09-05T13:36:00.075Z,27.60
2018-09-05T13:38:29.427Z,28.30
2018-09-05T13:40:58.114Z,28.40
2018-09-05T13:43:26.731Z,27.80
2018-09-05T13:45:55.375Z,27.80
2018-09-05T13:48:24.070Z,28.10
2018-09-05T13:50:52.766Z,28.30
2018-09-05T13:53:21.463Z,28.10
2018-09-05T13:55:50.110Z,28.00
2018-09-05T13:58:18.734Z,28.10
2018-09-05T14:00:47.378Z,27.80
2018-09-05T14:03:16.031Z,28.50
2018-09-05T14:05:44.623Z,28.90
2018-09-05T14:08:13.266Z,28.90
2018-09-05T14:10:41.914Z,28.50
2018-09-05T14:13:10.581Z,28.30
2018-09-05T14:15:40.268Z,28.50
2018-09-05T14:18:08.901Z,28.50
2018-09-05T14:20:37.627Z,27.70
2018-09-05T14:23:06.419Z,27.60
2018-09-05T14:25:35.089Z,27.70
2018-09-05T14:28:03.759Z,28.20
2018-09-05T14:30:32.359Z,28.20
2018-09-05T14:33:00.967Z,28.00
2018-09-05T14:35:29.563Z,28.20
2018-09-05T14:37:58.242Z,27.70
2018-09-05T14:40:26.898Z,27.70
2018-09-05T14:42:55.504Z,27.80
2018-09-05T14:45:24.128Z,27.90
2018-09-05T14:47:52.747Z,27.70
2018-09-05T14:50:21.473Z,27.90
2018-09-05T14:52:50.121Z,28.00
2018-09-05T14:55:18.716Z,28.30
2018-09-05T14:57:47.678Z,28.20
2018-09-05T15:00:16.342Z,28.40
2018-09-05T15:02:45.009Z,28.00
2018-09-05T15:05:13.646Z,28.00
2018-09-05T15:07:46.559Z,27.80
2018-09-05T15:10:15.180Z,27.70
2018-09-05T15:12:44.179Z,27.90
2018-09-05T15:15:13.038Z,27.70
2018-09-05T15:17:41.896Z,27.90
2018-09-05T15:20:11.170Z,27.80
2018-09-05T15:22:40.458Z,27.70
2018-09-05T15:25:09.095Z,27.80
2018-09-05T15:27:38.809Z,27.70
2018-09-05T15:30:08.062Z,27.70
2018-09-05T15:32:36.701Z,27.70
2018-09-05T15:35:05.527Z,27.60
2018-09-05T15:37:34.112Z,27.80
2018-09-05T15:40:02.841Z,27.70
2018-09-05T15:42:31.450Z,27.70
2018-09-05T15:45:00.067Z,27.60
2018-09-05T15:47:28.692Z,27.40
2018-09-05T15:49:57.355Z,27.60
2018-09-05T15:52:25.939Z,27.70
2018-09-05T15:54:54.567Z,27.70
2018-09-05T15:57:23.270Z,27.70
2018-09-05T15:59:52.897Z,27.60
2018-09-05T16:02:21.532Z,27.40
2018-09-05T16:04:50.227Z,27.30
2018-09-05T16:07:18.847Z,27.60
2018-09-05T16:09:47.436Z,27.80
2018-09-05T16:12:16.074Z,28.00
2018-09-05T16:14:44.650Z,27.70
2018-09-05T16:17:13.260Z,27.70
2018-09-05T16:19:41.905Z,27.40
2018-09-05T16:22:10.546Z,27.20
2018-09-05T16:24:39.153Z,27.10
2018-09-05T16:27:07.776Z,27.00
2018-09-05T16:29:36.424Z,26.90
2018-09-05T16:32:05.120Z,27.10
2018-09-05T16:34:33.723Z,27.20
2018-09-05T16:37:02.334Z,27.20
2018-09-05T16:39:31.048Z,27.10
2018-09-05T16:41:59.743Z,26.90
2018-09-05T16:44:28.318Z,26.90
2018-09-05T16:46:56.955Z,26.70
2018-09-05T16:49:25.578Z,26.90
2018-09-05T16:51:54.243Z,26.70
2018-09-05T16:54:22.859Z,26.50
2018-09-05T16:56:51.531Z,26.50
2018-09-05T16:59:20.135Z,26.50
2018-09-05T17:01:48.730Z,26.30
2018-09-05T17:04:17.706Z,26.50
2018-09-05T17:06:46.444Z,26.50
2018-09-05T17:09:15.234Z,26.30
2018-09-05T17:11:43.839Z,26.50
2018-09-05T17:14:12.424Z,26.40
2018-09-05T17:16:41.126Z,26.40
2018-09-05T17:19:10.091Z,26.50
2018-09-05T17:21:38.725Z,26.40
2018-09-05T17:24:07.393Z,26.50
2018-09-05T17:26:36.096Z,26.40
2018-09-05T17:29:05.196Z,26.30
2018-09-05T17:31:33.954Z,26.50
2018-09-05T17:34:03.164Z,26.50
2018-09-05T17:36:31.761Z,26.40
2018-09-05T17:39:00.415Z,26.20
2018-09-05T17:41:29.027Z,25.90
2018-09-05T17:43:57.626Z,25.80
2018-09-05T17:46:26.343Z,25.70
2018-09-05T17:48:54.969Z,25.60
2018-09-05T17:51:23.588Z,25.40
2018-09-05T17:53:52.196Z,25.30
2018-09-05T17:56:20.841Z,25.30
2018-09-05T17:58:49.439Z,25.20
2018-09-05T18:01:20.511Z,25.00
2018-09-05T18:03:49.135Z,24.70
2018-09-05T18:06:17.806Z,24.50
2018-09-05T18:08:46.436Z,24.40
2018-09-05T18:11:15.315Z,24.30
2018-09-05T18:13:44.132Z,24.00
2018-09-05T18:16:13.341Z,23.70
2018-09-05T18:18:42.356Z,23.60
2018-09-05T18:21:11.009Z,23.50
2018-09-05T18:23:39.599Z,23.40
2018-09-05T18:26:08.443Z,23.30
2018-09-05T18:28:37.042Z,23.00
2018-09-05T18:31:05.795Z,23.00
2018-09-05T18:33:34.400Z,22.80
2018-09-05T18:36:03.045Z,22.60
2018-09-05T18:38:31.715Z,22.60
2018-09-05T18:41:00.466Z,22.50
2018-09-05T18:43:29.126Z,22.30
2018-09-05T18:45:57.782Z,22.10
2018-09-05T18:48:26.511Z,21.80
2018-09-05T18:50:55.115Z,21.80
2018-09-05T18:53:23.774Z,21.80
2018-09-05T18:55:52.523Z,21.60
2018-09-05T18:58:21.098Z,21.60
2018-09-05T19:00:49.715Z,21.50
2018-09-05T19:03:18.314Z,21.40
2018-09-05T19:05:46.914Z,21.20
2018-09-05T19:08:15.493Z,21.20
2018-09-05T19:10:44.146Z,21.20
2018-09-05T19:13:19.369Z,21.00
2018-09-05T19:15:47.966Z,20.70
2018-09-05T19:18:16.572Z,20.60
2018-09-05T19:20:45.174Z,20.70
2018-09-05T19:23:13.764Z,20.60
2018-09-05T19:25:42.360Z,20.30
2018-09-05T19:28:11.028Z,20.10
2018-09-05T19:30:39.679Z,20.00
2018-09-05T19:33:08.330Z,20.00
2018-09-05T19:35:36.975Z,19.80
2018-09-05T19:38:05.604Z,19.50
2018-09-05T19:40:34.145Z,19.60
2018-09-05T19:43:02.823Z,19.70
2018-09-05T19:45:31.451Z,19.80
2018-09-05T19:48:00.059Z,19.70
2018-09-05T19:50:28.639Z,19.60
2018-09-05T19:52:57.234Z,19.50
2018-09-05T19:55:25.886Z,19.30
2018-09-05T19:57:54.536Z,19.30
2018-09-05T20:00:23.221Z,19.30
2018-09-05T20:02:51.969Z,19.20
2018-09-05T20:05:20.604Z,18.90
2018-09-05T20:07:49.198Z,18.90
2018-09-05T20:10:17.851Z,18.70
2018-09-05T20:12:46.591Z,17.60
2018-09-05T20:15:15.201Z,17.50
2018-09-05T20:17:43.834Z,18.00
2018-09-05T20:20:12.470Z,17.90
2018-09-05T20:22:41.122Z,18.00
2018-09-05T20:25:09.784Z,17.80
2018-09-05T20:27:39.473Z,17.90
2018-09-05T20:30:08.090Z,17.90
2018-09-05T20:32:36.765Z,18.00
2018-09-05T20:35:05.583Z,17.90
2018-09-05T20:37:34.170Z,18.00
2018-09-05T20:40:02.814Z,17.80
2018-09-05T20:42:31.450Z,17.70
2018-09-05T20:45:00.066Z,17.80
2018-09-05T20:47:29.781Z,17.70
2018-09-05T20:49:58.375Z,17.50
2018-09-05T20:52:27.033Z,17.50
2018-09-05T20:54:55.738Z,17.70
2018-09-05T20:57:24.426Z,17.60
2018-09-05T20:59:53.042Z,17.60
2018-09-05T21:02:22.738Z,17.60
2018-09-05T21:04:51.392Z,17.50
2018-09-05T21:07:20.152Z,17.30
2018-09-05T21:09:48.786Z,17.20
2018-09-05T21:12:17.406Z,17.20
2018-09-05T21:14:46.051Z,17.20
2018-09-05T21:17:14.682Z,17.10
2018-09-05T21:19:43.287Z,17.00
2018-09-05T21:22:11.898Z,16.80
2018-09-05T21:24:40.554Z,16.90
2018-09-05T21:27:09.220Z,16.90
2018-09-05T21:29:37.828Z,16.80
2018-09-05T21:32:06.610Z,16.80
2018-09-05T21:34:35.202Z,16.80
2018-09-05T21:37:03.813Z,16.70
2018-09-05T21:39:32.416Z,16.50
2018-09-05T21:42:01.047Z,16.60
2018-09-05T21:44:29.645Z,16.50
2018-09-05T21:46:58.258Z,16.30
2018-09-05T21:49:26.874Z,16.20
2018-09-05T21:51:55.663Z,16.20
2018-09-05T21:54:24.298Z,16.00
2018-09-05T21:56:52.952Z,16.00
2018-09-05T21:59:21.541Z,16.00
2018-09-05T22:01:50.146Z,16.10
2018-09-05T22:04:18.738Z,15.90
2018-09-05T22:06:47.363Z,16.10
2018-09-05T22:09:16.010Z,16.00
2018-09-05T22:11:44.604Z,16.10
2018-09-05T22:14:13.243Z,16.00
2018-09-05T22:16:41.842Z,16.10
2018-09-05T22:19:10.474Z,16.00
2018-09-05T22:21:39.115Z,15.90
2018-09-05T22:24:07.739Z,15.80
2018-09-05T22:26:36.314Z,15.90
2018-09-05T22:29:04.937Z,15.90
2018-09-05T22:31:34.630Z,15.80
2018-09-05T22:34:03.319Z,15.70
2018-09-05T22:36:31.906Z,15.50
2018-09-05T22:39:00.510Z,15.40
2018-09-05T22:41:29.193Z,15.50
2018-09-05T22:44:08.891Z,15.60
2018-09-05T22:46:48.730Z,15.60
2018-09-05T22:51:36.752Z,15.40
2018-09-05T22:54:21.872Z,15.30
2018-09-05T22:57:06.860Z,15.30
2018-09-05T23:00:02.644Z,15.30
2018-09-05T23:02:47.962Z,15.20
2018-09-05T23:05:39.750Z,14.90
2018-09-05T23:08:46.668Z,15.00
2018-09-05T23:11:26.263Z,15.10
2018-09-05T23:15:05.889Z,14.90
2018-09-05T23:19:53.928Z,14.70
2018-09-05T23:22:22.899Z,14.90
2018-09-05T23:24:51.505Z,14.80
2018-09-05T23:27:20.108Z,14.30
2018-09-05T23:29:48.706Z,14.50
2018-09-05T23:32:17.278Z,14.60
2018-09-05T23:34:45.871Z,14.70
2018-09-05T23:37:14.487Z,14.70
2018-09-05T23:39:43.051Z,14.70
2018-09-05T23:42:11.635Z,14.60
2018-09-05T23:44:40.239Z,14.50
2018-09-05T23:47:08.899Z,14.50
2018-09-05T23:49:37.507Z,14.40
2018-09-05T23:52:06.245Z,14.40
2018-09-05T23:54:34.828Z,14.60
2018-09-05T23:57:03.588Z,14.60
2018-09-05T23:59:32.193Z,14.60
